createdAt,value
2022-08-25T00:01:47.776Z,82.54
2022-08-25T00:04:16.613Z,82.55
2022-08-25T00:06:46.547Z,82.53
2022-08-25T00:09:17.215Z,82.68
2022-08-25T00:11:44.755Z,82.61
2022-08-25T00:14:16.184Z,82.68
2022-08-25T00:16:43.509Z,82.63
2022-08-25T00:19:14.195Z,82.61
2022-08-25T00:21:42.395Z,82.62
2022-08-25T00:24:10.425Z,82.60
2022-08-25T00:26:43.619Z,82.57
2022-08-25T00:29:11.156Z,82.69
2022-08-25T00:31:39.415Z,82.66
2022-08-25T00:34:08.706Z,82.66
2022-08-25T00:36:35.864Z,82.66
2022-08-25T00:39:03.727Z,82.70
2022-08-25T00:41:30.946Z,82.69
2022-08-25T00:44:00.447Z,82.70
2022-08-25T00:46:43.841Z,82.71
2022-08-25T00:49:24.594Z,82.69
2022-08-25T00:52:12.358Z,82.71
2022-08-25T00:54:45.284Z,82.65
2022-08-25T00:57:14.912Z,82.71
2022-08-25T00:59:44.455Z,82.79
2022-08-25T01:02:13.806Z,82.79
2022-08-25T01:04:48.654Z,82.90
2022-08-25T01:07:18.788Z,82.93
2022-08-25T01:09:48.230Z,82.88
2022-08-25T01:12:15.445Z,82.87
2022-08-25T01:14:44.708Z,83.10
2022-08-25T01:17:11.734Z,83.14
2022-08-25T01:19:38.743Z,83.19
2022-08-25T01:22:06.092Z,83.22
2022-08-25T01:24:43.204Z,83.25
2022-08-25T01:27:11.584Z,83.22
2022-08-25T01:29:39.288Z,83.14
2022-08-25T01:32:09.744Z,83.18
2022-08-25T01:34:40.626Z,83.28
2022-08-25T01:37:09.698Z,83.24
2022-08-25T01:39:41.505Z,83.23
2022-08-25T01:42:34.893Z,83.27
2022-08-25T01:45:02.171Z,83.46
2022-08-25T01:47:29.102Z,83.25
2022-08-25T01:49:56.106Z,83.27
2022-08-25T01:52:41.383Z,83.23
2022-08-25T01:55:08.588Z,83.18
2022-08-25T01:57:35.488Z,83.16
2022-08-25T02:00:02.735Z,83.20
2022-08-25T02:02:38.150Z,83.32
2022-08-25T02:05:11.243Z,83.23
2022-08-25T02:07:38.400Z,83.31
2022-08-25T02:10:07.513Z,83.29
2022-08-25T02:12:35.905Z,83.35
2022-08-25T02:15:06.313Z,83.31
2022-08-25T02:17:35.572Z,83.28
2022-08-25T02:20:08.504Z,83.44
2022-08-25T02:22:35.585Z,83.33
2022-08-25T02:25:02.506Z,83.38
2022-08-25T02:27:29.624Z,83.38
2022-08-25T02:29:56.599Z,83.46
2022-08-25T02:32:23.743Z,83.27
2022-08-25T02:34:50.647Z,83.42
2022-08-25T02:37:17.663Z,83.43
2022-08-25T02:39:44.661Z,83.36
2022-08-25T02:42:11.859Z,83.28
2022-08-25T02:44:38.764Z,83.34
2022-08-25T02:47:05.824Z,83.37
2022-08-25T02:49:33.164Z,83.29
2022-08-25T02:52:00.586Z,83.46
2022-08-25T02:54:28.774Z,83.24
2022-08-25T02:56:55.694Z,83.27
2022-08-25T02:59:22.733Z,83.25
2022-08-25T03:01:49.708Z,83.29
2022-08-25T03:04:16.906Z,83.24
2022-08-25T03:06:44.155Z,83.16
2022-08-25T03:09:11.266Z,83.18
2022-08-25T03:11:38.373Z,83.34
2022-08-25T03:14:06.870Z,83.19
2022-08-25T03:16:34.252Z,83.25
2022-08-25T03:19:01.806Z,83.22
2022-08-25T03:21:30.245Z,83.09
2022-08-25T03:23:57.937Z,83.25
2022-08-25T03:26:43.204Z,83.21
2022-08-25T03:29:10.713Z,83.17
2022-08-25T03:31:39.212Z,83.12
2022-08-25T03:34:06.605Z,83.31
2022-08-25T03:36:33.752Z,83.38
2022-08-25T03:39:01.193Z,83.30
2022-08-25T03:41:30.305Z,83.18
2022-08-25T03:43:57.422Z,83.21
2022-08-25T03:46:30.145Z,83.21
2022-08-25T03:48:58.173Z,83.37
2022-08-25T03:51:34.998Z,83.27
2022-08-25T03:54:03.034Z,83.31
2022-08-25T03:56:30.855Z,83.15
2022-08-25T03:58:58.284Z,83.11
2022-08-25T04:01:26.088Z,83.14
2022-08-25T04:03:53.644Z,83.24
2022-08-25T04:06:20.962Z,83.08
2022-08-25T04:08:48.635Z,83.13
2022-08-25T04:11:17.731Z,83.34
2022-08-25T04:13:46.776Z,83.22
2022-08-25T04:16:16.639Z,83.32
2022-08-25T04:18:43.932Z,83.42
2022-08-25T04:21:12.007Z,83.37
2022-08-25T04:23:43.465Z,83.46
2022-08-25T04:26:13.993Z,83.47
2022-08-25T04:28:41.822Z,83.38
2022-08-25T04:31:10.674Z,83.52
2022-08-25T04:33:38.536Z,83.39
2022-08-25T04:36:11.479Z,83.40
2022-08-25T04:38:42.463Z,83.32
2022-08-25T04:41:11.896Z,83.35
2022-08-25T04:43:40.356Z,83.40
2022-08-25T04:46:16.510Z,83.25
2022-08-25T04:48:51.904Z,82.96
2022-08-25T04:51:23.446Z,83.06
2022-08-25T04:53:51.034Z,82.96
2022-08-25T04:56:19.747Z,82.90
2022-08-25T04:58:47.244Z,82.77
2022-08-25T05:01:17.391Z,82.94
2022-08-25T05:03:46.080Z,82.86
2022-08-25T05:06:16.087Z,82.48
2022-08-25T05:08:45.781Z,82.65
2022-08-25T05:11:14.836Z,82.32
2022-08-25T05:13:43.754Z,82.52
2022-08-25T05:16:19.681Z,82.50
2022-08-25T05:18:47.497Z,82.51
2022-08-25T05:21:17.125Z,82.41
2022-08-25T05:23:44.849Z,82.30
2022-08-25T05:26:20.383Z,82.18
2022-08-25T05:28:49.726Z,82.23
2022-08-25T05:31:17.350Z,82.03
2022-08-25T05:33:44.934Z,81.76
2022-08-25T05:36:13.568Z,81.75
2022-08-25T05:38:42.020Z,81.53
2022-08-25T05:41:16.377Z,81.18
2022-08-25T05:43:44.792Z,81.05
2022-08-25T05:46:13.566Z,80.71
2022-08-25T05:48:40.805Z,80.22
2022-08-25T05:51:10.314Z,80.04
2022-08-25T05:53:41.465Z,79.65
2022-08-25T05:56:09.151Z,79.87
2022-08-25T05:58:36.731Z,79.46
2022-08-25T06:01:23.075Z,79.57
2022-08-25T06:03:53.446Z,79.37
2022-08-25T06:06:22.457Z,79.33
2022-08-25T06:08:49.782Z,79.05
2022-08-25T06:11:16.832Z,79.24
2022-08-25T06:13:43.891Z,79.12
2022-08-25T06:16:11.015Z,79.37
2022-08-25T06:18:38.484Z,79.24
2022-08-25T06:21:11.432Z,79.23
2022-08-25T06:23:39.407Z,79.18
2022-08-25T06:26:06.799Z,79.08
2022-08-25T06:28:53.985Z,79.00
2022-08-25T06:31:22.666Z,79.09
2022-08-25T06:33:50.399Z,79.04
2022-08-25T06:36:17.555Z,78.66
2022-08-25T06:38:44.723Z,78.69
2022-08-25T06:41:12.554Z,78.51
2022-08-25T06:43:47.417Z,78.61
2022-08-25T06:46:21.815Z,78.50
2022-08-25T06:48:49.631Z,78.33
2022-08-25T06:51:19.253Z,78.37
2022-08-25T06:53:49.057Z,78.44
2022-08-25T06:56:17.345Z,78.17
2022-08-25T06:58:44.611Z,78.05
2022-08-25T07:01:22.296Z,78.03
2022-08-25T07:03:50.223Z,78.18
2022-08-25T07:06:19.931Z,77.73
2022-08-25T07:08:48.076Z,77.81
2022-08-25T07:11:17.368Z,77.80
2022-08-25T07:13:45.417Z,77.45
2022-08-25T07:16:13.509Z,77.25
2022-08-25T07:18:40.702Z,77.11
2022-08-25T07:21:08.916Z,76.93
2022-08-25T07:23:37.172Z,77.04
2022-08-25T07:26:39.422Z,76.50
2022-08-25T07:29:10.670Z,76.16
2022-08-25T07:31:38.140Z,75.74
2022-08-25T07:34:25.753Z,75.35
2022-08-25T07:36:54.677Z,74.76
2022-08-25T07:39:22.682Z,74.77
2022-08-25T07:41:51.991Z,74.51
2022-08-25T07:44:21.418Z,74.46
2022-08-25T07:46:48.729Z,74.17
2022-08-25T07:49:23.545Z,73.90
2022-08-25T07:52:05.395Z,73.77
2022-08-25T07:54:35.555Z,73.67
2022-08-25T07:57:05.702Z,73.56
2022-08-25T07:59:39.256Z,73.34
2022-08-25T08:02:09.346Z,73.08
2022-08-25T08:04:48.856Z,73.02
2022-08-25T08:07:18.531Z,72.66
2022-08-25T08:09:46.491Z,72.58
2022-08-25T08:12:13.486Z,72.54
2022-08-25T08:14:44.993Z,72.27
2022-08-25T08:17:13.802Z,72.43
2022-08-25T08:19:44.825Z,72.46
2022-08-25T08:22:15.113Z,72.75
2022-08-25T08:24:54.534Z,72.64
2022-08-25T08:27:23.480Z,72.65
2022-08-25T08:29:50.611Z,72.54
2022-08-25T08:32:18.704Z,72.25
2022-08-25T08:34:47.015Z,72.51
2022-08-25T08:37:22.002Z,72.43
2022-08-25T08:39:51.371Z,72.49
2022-08-25T08:42:45.353Z,72.40
2022-08-25T08:45:25.371Z,72.66
2022-08-25T08:48:23.492Z,72.45
2022-08-25T08:50:53.271Z,72.65
2022-08-25T08:53:46.343Z,72.58
2022-08-25T08:56:45.344Z,72.62
2022-08-25T08:59:19.663Z,72.30
2022-08-25T09:02:00.541Z,72.32
2022-08-25T09:05:06.972Z,72.26
2022-08-25T09:07:42.146Z,72.17
2022-08-25T09:10:10.654Z,72.07
2022-08-25T09:12:48.078Z,71.98
2022-08-25T09:15:58.467Z,72.34
2022-08-25T09:18:50.941Z,72.70
2022-08-25T09:21:31.238Z,73.12
2022-08-25T09:24:43.412Z,73.68
2022-08-25T09:27:38.332Z,74.15
2022-08-25T09:30:17.175Z,74.33
2022-08-25T09:33:05.118Z,74.81
2022-08-25T09:35:35.813Z,75.47
2022-08-25T09:38:10.572Z,75.51
2022-08-25T09:40:43.424Z,75.57
2022-08-25T09:43:24.503Z,75.82
2022-08-25T09:46:13.043Z,76.21
2022-08-25T09:48:52.537Z,76.44
2022-08-25T09:51:29.240Z,76.81
2022-08-25T09:54:18.761Z,76.96
2022-08-25T09:56:50.061Z,77.48
2022-08-25T09:59:36.293Z,77.60
2022-08-25T10:02:06.941Z,77.60
2022-08-25T10:04:40.109Z,77.42
2022-08-25T10:07:28.122Z,77.34
2022-08-25T10:10:16.732Z,77.28
2022-08-25T10:12:51.558Z,77.31
2022-08-25T10:15:35.020Z,77.32
2022-08-25T10:18:23.562Z,77.20
2022-08-25T10:21:11.932Z,77.04
2022-08-25T10:23:44.384Z,76.79
2022-08-25T10:26:44.721Z,76.82
2022-08-25T10:29:17.757Z,76.91
2022-08-25T10:31:56.107Z,77.13
2022-08-25T10:34:46.851Z,76.82
2022-08-25T10:37:41.229Z,76.68
2022-08-25T10:40:26.879Z,76.91
2022-08-25T10:43:08.049Z,76.77
2022-08-25T10:45:51.022Z,76.76
2022-08-25T10:48:38.132Z,76.83
2022-08-25T10:51:43.920Z,76.45
2022-08-25T10:54:32.893Z,76.24
2022-08-25T10:57:12.372Z,76.36
2022-08-25T10:59:43.532Z,76.14
2022-08-25T11:02:30.811Z,76.34
2022-08-25T11:05:06.948Z,76.39
2022-08-25T11:07:42.681Z,76.07
2022-08-25T11:10:13.301Z,76.25
2022-08-25T11:12:45.451Z,76.29
2022-08-25T11:15:29.291Z,75.95
2022-08-25T11:18:05.708Z,75.61
2022-08-25T11:21:01.038Z,75.38
2022-08-25T11:23:55.453Z,75.21
2022-08-25T11:26:31.972Z,75.16
2022-08-25T11:29:12.050Z,74.67
2022-08-25T11:31:53.759Z,74.33
2022-08-25T11:34:22.091Z,73.96
2022-08-25T11:37:01.032Z,73.66
2022-08-25T11:39:35.664Z,73.55
2022-08-25T11:42:28.223Z,73.14
2022-08-25T11:45:13.901Z,72.79
2022-08-25T11:47:53.259Z,72.81
2022-08-25T11:50:30.253Z,72.33
2022-08-25T11:53:23.710Z,72.03
2022-08-25T11:55:56.471Z,71.72
2022-08-25T11:58:44.833Z,71.64
2022-08-25T12:01:34.282Z,71.38
2022-08-25T12:04:33.765Z,71.44
2022-08-25T12:07:07.288Z,71.32
2022-08-25T12:09:54.818Z,70.90
2022-08-25T12:12:32.359Z,70.81
2022-08-25T12:15:24.592Z,70.65
2022-08-25T12:18:10.478Z,70.32
2022-08-25T12:20:57.113Z,70.06
2022-08-25T12:23:31.863Z,69.68
2022-08-25T12:26:23.922Z,69.55
2022-08-25T12:29:11.123Z,69.61
2022-08-25T12:32:04.660Z,69.43
2022-08-25T12:35:02.592Z,69.51
2022-08-25T12:37:30.091Z,69.37
2022-08-25T12:40:06.004Z,69.27
2022-08-25T12:42:40.343Z,69.36
2022-08-25T12:45:25.493Z,69.64
2022-08-25T12:47:54.754Z,69.64
2022-08-25T12:50:35.003Z,69.88
2022-08-25T12:53:10.219Z,70.16
2022-08-25T12:55:40.415Z,70.10
2022-08-25T12:58:08.162Z,70.34
2022-08-25T13:01:09.183Z,70.70
2022-08-25T13:03:58.511Z,71.28
2022-08-25T13:06:57.961Z,71.51
2022-08-25T13:09:31.315Z,71.83
2022-08-25T13:12:21.971Z,71.86
2022-08-25T13:14:55.284Z,72.21
2022-08-25T13:17:33.971Z,72.39
2022-08-25T13:20:26.501Z,72.52
2022-08-25T13:22:58.109Z,72.65
2022-08-25T13:25:32.440Z,72.77
2022-08-25T13:28:03.875Z,72.71
2022-08-25T13:30:32.232Z,72.73
2022-08-25T13:32:59.493Z,72.74
2022-08-25T13:35:33.016Z,72.67
2022-08-25T13:38:19.625Z,72.82
2022-08-25T13:40:46.753Z,72.82
2022-08-25T13:43:14.966Z,72.67
2022-08-25T13:45:44.892Z,72.35
2022-08-25T13:48:22.776Z,72.35
2022-08-25T13:50:52.745Z,72.10
2022-08-25T13:53:25.741Z,71.87
2022-08-25T13:56:00.778Z,71.83
2022-08-25T13:58:39.668Z,71.96
2022-08-25T14:01:23.055Z,71.94
2022-08-25T14:04:25.112Z,71.94
2022-08-25T14:07:19.594Z,71.79
2022-08-25T14:09:53.741Z,71.58
2022-08-25T14:15:25.983Z,71.23
2022-08-25T14:18:15.702Z,70.94
2022-08-25T14:20:50.700Z,70.88
2022-08-25T14:23:30.948Z,70.74
2022-08-25T14:25:58.589Z,70.61
2022-08-25T14:28:29.166Z,70.44
2022-08-25T14:31:05.215Z,70.38
2022-08-25T14:33:36.080Z,70.38
2022-08-25T14:36:05.390Z,70.28
2022-08-25T14:38:33.620Z,70.60
2022-08-25T14:41:00.955Z,70.69
2022-08-25T14:43:32.111Z,70.79
2022-08-25T14:46:02.545Z,71.04
2022-08-25T14:48:34.901Z,70.96
2022-08-25T14:51:04.171Z,70.81
2022-08-25T14:53:31.435Z,70.99
2022-08-25T14:55:59.177Z,70.87
2022-08-25T14:58:27.630Z,70.99
2022-08-25T15:01:01.758Z,71.27
2022-08-25T15:03:43.199Z,71.20
2022-08-25T15:06:16.037Z,71.26
2022-08-25T15:09:02.189Z,71.22
2022-08-25T15:11:31.684Z,71.70
2022-08-25T15:14:02.403Z,71.78
2022-08-25T15:16:35.493Z,71.59
2022-08-25T15:19:06.656Z,71.66
2022-08-25T15:21:35.604Z,71.71
2022-08-25T15:24:04.753Z,71.82
2022-08-25T15:26:34.943Z,71.67
2022-08-25T15:29:03.911Z,72.00
2022-08-25T15:31:30.939Z,71.93
2022-08-25T15:33:58.102Z,71.85
2022-08-25T15:36:26.209Z,71.83
2022-08-25T15:38:53.445Z,72.18
2022-08-25T15:41:22.427Z,72.33
2022-08-25T15:43:54.356Z,72.69
2022-08-25T15:46:24.747Z,72.70
2022-08-25T15:48:51.859Z,72.78
2022-08-25T15:51:19.078Z,73.03
2022-08-25T15:53:46.696Z,72.95
2022-08-25T15:56:26.541Z,73.00
2022-08-25T15:58:55.647Z,73.50
2022-08-25T16:01:25.457Z,73.31
2022-08-25T16:03:53.449Z,73.67
2022-08-25T16:06:20.643Z,73.77
2022-08-25T16:08:48.319Z,73.79
2022-08-25T16:11:19.271Z,74.25
2022-08-25T16:13:47.683Z,74.28
2022-08-25T16:16:16.234Z,74.34
2022-08-25T16:18:43.848Z,74.30
2022-08-25T16:21:12.958Z,74.47
2022-08-25T16:23:40.574Z,74.90
2022-08-25T16:26:09.861Z,74.82
2022-08-25T16:28:39.127Z,75.04
2022-08-25T16:31:16.690Z,75.25
2022-08-25T16:33:44.739Z,75.18
2022-08-25T16:36:13.041Z,75.31
2022-08-25T16:38:40.801Z,75.10
2022-08-25T16:41:10.065Z,75.19
2022-08-25T16:43:37.224Z,75.14
2022-08-25T16:46:08.388Z,75.49
2022-08-25T16:48:36.407Z,75.45
2022-08-25T16:51:22.517Z,75.06
2022-08-25T16:54:08.419Z,75.45
2022-08-25T16:56:37.145Z,75.43
2022-08-25T16:59:06.248Z,75.23
2022-08-25T17:01:36.249Z,75.41
2022-08-25T17:04:04.106Z,75.48
2022-08-25T17:06:35.524Z,75.11
2022-08-25T17:09:02.689Z,75.53
2022-08-25T17:11:33.140Z,75.41
2022-08-25T17:14:02.287Z,75.58
2022-08-25T17:16:32.472Z,75.76
2022-08-25T17:19:05.812Z,75.90
2022-08-25T17:21:36.166Z,75.99
2022-08-25T17:24:04.852Z,76.49
2022-08-25T17:26:31.991Z,76.51
2022-08-25T17:29:01.143Z,76.73
2022-08-25T17:31:29.820Z,76.84
2022-08-25T17:33:57.474Z,76.98
2022-08-25T17:36:27.069Z,77.19
2022-08-25T17:38:56.944Z,77.37
2022-08-25T17:41:24.519Z,77.55
2022-08-25T17:43:51.612Z,77.83
2022-08-25T17:46:18.935Z,77.79
2022-08-25T17:48:46.321Z,77.86
2022-08-25T17:51:16.314Z,77.93
2022-08-25T17:53:43.849Z,78.31
2022-08-25T17:56:17.632Z,78.25
2022-08-25T17:58:47.431Z,78.27
2022-08-25T18:01:17.682Z,78.74
2022-08-25T18:03:44.867Z,78.44
2022-08-25T18:06:16.443Z,78.68
2022-08-25T18:08:44.636Z,78.86
2022-08-25T18:11:20.347Z,79.18
2022-08-25T18:13:47.914Z,79.26
2022-08-25T18:16:17.682Z,79.38
2022-08-25T18:18:45.226Z,79.30
2022-08-25T18:21:14.798Z,79.79
2022-08-25T18:23:42.892Z,79.64
2022-08-25T18:26:12.897Z,79.80
2022-08-25T18:28:40.343Z,79.75
2022-08-25T18:31:13.249Z,80.08
2022-08-25T18:33:44.823Z,80.08
2022-08-25T18:36:12.668Z,80.30
2022-08-25T18:38:59.394Z,80.33
2022-08-25T18:41:28.886Z,80.23
2022-08-25T18:43:57.408Z,80.45
2022-08-25T18:46:25.995Z,80.63
2022-08-25T18:48:53.370Z,80.45
2022-08-25T18:51:23.318Z,80.57
2022-08-25T18:53:54.671Z,80.89
2022-08-25T18:56:26.641Z,80.85
2022-08-25T18:58:54.102Z,81.03
2022-08-25T19:01:21.714Z,81.22
2022-08-25T19:03:50.642Z,81.34
2022-08-25T19:06:19.378Z,81.29
2022-08-25T19:08:47.012Z,81.41
2022-08-25T19:11:14.799Z,81.37
2022-08-25T19:13:44.181Z,81.37
2022-08-25T19:16:17.735Z,81.49
2022-08-25T19:18:49.111Z,81.44
2022-08-25T19:21:22.780Z,81.40
2022-08-25T19:23:51.417Z,81.54
2022-08-25T19:26:20.491Z,81.31
2022-08-25T19:28:49.538Z,81.48
2022-08-25T19:31:25.237Z,81.28
2022-08-25T19:33:53.561Z,81.35
2022-08-25T19:36:28.099Z,81.24
2022-08-25T19:38:58.500Z,81.33
2022-08-25T19:41:27.586Z,81.31
2022-08-25T19:43:57.398Z,81.29
2022-08-25T19:46:32.813Z,81.22
2022-08-25T19:49:07.239Z,81.38
2022-08-25T19:51:44.190Z,81.64
2022-08-25T19:54:14.266Z,81.41
2022-08-25T19:56:43.579Z,81.71
2022-08-25T19:59:11.277Z,81.73
2022-08-25T20:01:39.186Z,81.84
2022-08-25T20:04:10.483Z,81.77
2022-08-25T20:06:37.590Z,81.95
2022-08-25T20:09:04.964Z,81.77
2022-08-25T20:11:33.358Z,82.03
2022-08-25T20:14:03.824Z,82.09
2022-08-25T20:16:31.648Z,82.08
2022-08-25T20:19:00.265Z,81.76
2022-08-25T20:21:28.112Z,82.03
2022-08-25T20:24:17.115Z,82.16
2022-08-25T20:26:44.366Z,82.17
2022-08-25T20:29:12.120Z,82.26
2022-08-25T20:31:39.516Z,82.22
2022-08-25T20:34:07.240Z,82.14
2022-08-25T20:36:35.969Z,82.14
2022-08-25T20:39:04.470Z,82.21
2022-08-25T20:41:33.303Z,82.39
2022-08-25T20:44:03.837Z,82.27
2022-08-25T20:46:35.317Z,82.44
2022-08-25T20:49:05.319Z,82.53
2022-08-25T20:51:32.294Z,82.55
2022-08-25T20:53:59.508Z,82.47
2022-08-25T20:56:29.718Z,82.48
2022-08-25T20:58:56.664Z,82.64
2022-08-25T21:01:39.843Z,82.78
2022-08-25T21:04:09.582Z,82.68
2022-08-25T21:06:42.358Z,82.89
2022-08-25T21:09:16.068Z,82.79
2022-08-25T21:11:44.037Z,82.61
2022-08-25T21:14:12.948Z,82.81
2022-08-25T21:16:41.045Z,82.71
2022-08-25T21:19:10.965Z,82.54
2022-08-25T21:21:38.999Z,82.83
2022-08-25T21:24:09.981Z,82.73
2022-08-25T21:26:37.746Z,82.73
2022-08-25T21:29:16.766Z,82.91
2022-08-25T21:31:43.884Z,82.96
2022-08-25T21:34:11.793Z,82.88
2022-08-25T21:36:39.085Z,82.78
2022-08-25T21:39:07.199Z,82.92
2022-08-25T21:41:35.351Z,82.94
2022-08-25T21:44:04.539Z,82.74
2022-08-25T21:46:32.993Z,82.79
2022-08-25T21:49:06.250Z,82.92
2022-08-25T21:51:44.703Z,83.11
2022-08-25T21:54:15.030Z,83.12
2022-08-25T21:56:43.546Z,83.00
2022-08-25T21:59:16.324Z,82.91
2022-08-25T22:01:45.836Z,82.92
2022-08-25T22:04:14.679Z,82.95
2022-08-25T22:06:43.065Z,83.07
2022-08-25T22:09:12.913Z,83.07
2022-08-25T22:11:42.746Z,83.18
2022-08-25T22:14:10.116Z,83.01
2022-08-25T22:16:37.546Z,83.10
2022-08-25T22:19:05.888Z,83.08
2022-08-25T22:21:33.585Z,83.23
2022-08-25T22:24:00.960Z,83.37
2022-08-25T22:26:29.919Z,83.12
2022-08-25T22:28:57.494Z,83.28
2022-08-25T22:31:25.551Z,83.33
2022-08-25T22:33:52.616Z,83.32
2022-08-25T22:36:24.686Z,83.61
2022-08-25T22:38:53.294Z,83.24
2022-08-25T22:41:21.729Z,83.62
2022-08-25T22:43:51.075Z,83.35
2022-08-25T22:46:19.510Z,83.47
2022-08-25T22:48:46.735Z,83.35
2022-08-25T22:51:28.505Z,83.46
2022-08-25T22:53:55.521Z,83.55
2022-08-25T22:56:31.944Z,83.35
2022-08-25T22:59:02.661Z,83.26
2022-08-25T23:01:30.174Z,83.60
2022-08-25T23:03:58.045Z,83.49
2022-08-25T23:06:25.513Z,83.43
2022-08-25T23:08:53.965Z,83.55
2022-08-25T23:11:22.757Z,83.63
2022-08-25T23:13:50.152Z,83.66
2022-08-25T23:16:17.770Z,83.46
2022-08-25T23:18:45.044Z,83.49
2022-08-25T23:21:31.518Z,83.27
2022-08-25T23:24:02.674Z,83.66
2022-08-25T23:26:32.851Z,83.42
2022-08-25T23:28:59.777Z,83.34
2022-08-25T23:31:26.971Z,83.60
2022-08-25T23:33:54.984Z,83.70
2022-08-25T23:36:22.185Z,83.66
2022-08-25T23:38:51.525Z,83.63
2022-08-25T23:41:21.484Z,83.44
2022-08-25T23:43:50.402Z,83.46
2022-08-25T23:46:20.117Z,83.57
2022-08-25T23:48:48.466Z,83.77
2022-08-25T23:51:27.261Z,83.73
2022-08-25T23:53:55.082Z,83.78
2022-08-25T23:56:22.914Z,83.56
2022-08-25T23:58:51.205Z,83.67
